KHSE

Billy Mitchell Airport

Hatteras, North Carolina, USA
METAR KHSE 230851Z AUTO 32004KT 10SM CLR 16/11 A3019 RMK AO2 SLP224 T01560106 $
Observed Flight Rules
Oct-23 @ 08:51 UTC (48 minutes ago) Visual Flight Rules
Wind Visibility Clouds
320° at 4 knots 10 miles
  • Clear skies
Temperatures Readings
Current 16°C / 61°F
Dewpoint 11°C / 52°F
Humidity 72%
Altimeter 30.19" Hg
Pressure 1022.4 hPa
Elevation 3
METAR KHSE 230851Z AUTO 32004KT 10SM CLR 16/11 A3019 RMK AO2 SLP224 T01560106 $
Observed Flight Rules
Oct-23 @ 08:51 UTC
(48 minutes ago)
VFR
Wind Visibility
320° at 4 knots 10 miles
Clouds
  • Clear skies
Temperature Dewpoint
16°C / 61°F 11°C / 52°F
Humidity Altimeter Pressure
72% 30.19" Hg 1022.4 hPa